createdAt,value
2023-03-22T00:00:17.677Z,32.30
2023-03-22T00:03:06.400Z,30.60
2023-03-22T00:05:34.622Z,32.70
2023-03-22T00:08:07.287Z,30.90
2023-03-22T00:10:38.738Z,30.80
2023-03-22T00:13:09.493Z,31.00
2023-03-22T00:15:38.004Z,31.60
2023-03-22T00:18:06.244Z,30.00
2023-03-22T00:20:38.565Z,28.40
2023-03-22T00:23:09.290Z,30.80
2023-03-22T00:25:38.668Z,28.00
2023-03-22T00:28:06.959Z,26.80
2023-03-22T00:30:35.141Z,30.00
2023-03-22T00:33:06.685Z,28.30
2023-03-22T00:35:34.993Z,28.30
2023-03-22T00:38:06.347Z,28.10
2023-03-22T00:40:34.498Z,28.00
2023-03-22T00:43:02.670Z,28.00
2023-03-22T00:45:31.053Z,29.30
2023-03-22T00:47:59.475Z,29.90
2023-03-22T00:50:27.809Z,28.20
2023-03-22T00:52:56.100Z,26.30
2023-03-22T00:55:24.481Z,25.60
2023-03-22T00:57:52.764Z,30.10
2023-03-22T01:00:21.035Z,27.50
2023-03-22T01:02:49.417Z,26.60
2023-03-22T01:05:22.149Z,27.90
2023-03-22T01:07:55.124Z,28.40
2023-03-22T01:10:23.692Z,29.70
2023-03-22T01:12:52.152Z,27.40
2023-03-22T01:15:20.439Z,29.40
2023-03-22T01:17:48.842Z,25.70
2023-03-22T01:20:17.499Z,27.30
2023-03-22T01:22:45.993Z,25.70
2023-03-22T01:25:14.476Z,28.20
2023-03-22T01:27:42.756Z,26.40
2023-03-22T01:30:11.357Z,27.80
2023-03-22T01:32:40.957Z,27.40
2023-03-22T01:35:10.189Z,28.40
2023-03-22T01:37:38.951Z,26.10
2023-03-22T01:40:08.356Z,27.00
2023-03-22T01:42:37.129Z,29.40
2023-03-22T01:45:34.830Z,28.40
2023-03-22T01:48:14.938Z,27.60
2023-03-22T01:50:48.755Z,27.50
2023-03-22T01:53:19.170Z,26.60
2023-03-22T01:55:47.817Z,29.90
2023-03-22T01:58:23.559Z,30.60
2023-03-22T02:00:56.648Z,27.00
2023-03-22T02:03:38.538Z,28.90
2023-03-22T02:06:08.150Z,30.80
2023-03-22T02:08:36.468Z,31.30
2023-03-22T02:11:16.378Z,30.50
2023-03-22T02:14:09.246Z,29.70
2023-03-22T02:16:55.035Z,29.90
2023-03-22T02:19:54.290Z,33.70
2023-03-22T02:22:53.068Z,34.50
2023-03-22T02:25:39.747Z,31.90
2023-03-22T02:28:35.474Z,30.90
2023-03-22T02:31:57.720Z,29.20
2023-03-22T02:34:47.902Z,29.40
2023-03-22T02:37:25.097Z,31.50
2023-03-22T02:40:08.844Z,29.50
2023-03-22T02:42:58.014Z,28.90
2023-03-22T02:45:39.503Z,30.50
2023-03-22T02:48:30.706Z,30.30
2023-03-22T02:51:08.407Z,33.60
2023-03-22T02:53:48.968Z,31.90
2023-03-22T02:56:24.117Z,30.80
2023-03-22T02:58:57.438Z,33.00
2023-03-22T03:01:29.393Z,31.50
2023-03-22T03:04:02.508Z,35.20
2023-03-22T03:06:39.053Z,31.80
2023-03-22T03:09:08.346Z,32.10
2023-03-22T03:11:36.736Z,33.20
2023-03-22T03:14:05.911Z,30.10
2023-03-22T03:16:35.265Z,30.40
2023-03-22T03:19:14.378Z,31.40
2023-03-22T03:22:09.633Z,31.10
2023-03-22T03:24:48.931Z,30.40
2023-03-22T03:27:28.278Z,32.20
2023-03-22T03:30:14.146Z,36.10
2023-03-22T03:32:59.328Z,31.00
2023-03-22T03:35:37.921Z,29.80
2023-03-22T03:38:12.313Z,31.40
2023-03-22T03:40:44.075Z,30.80
2023-03-22T03:43:14.272Z,31.90
2023-03-22T03:45:42.968Z,35.20
2023-03-22T03:48:21.412Z,33.10
2023-03-22T03:50:53.048Z,30.00
2023-03-22T03:53:21.412Z,32.90
2023-03-22T03:55:49.892Z,31.70
2023-03-22T03:58:18.283Z,31.10
2023-03-22T04:00:48.604Z,33.20
2023-03-22T04:03:26.717Z,29.40
2023-03-22T04:06:14.866Z,30.00
2023-03-22T04:08:53.643Z,31.30
2023-03-22T04:11:24.014Z,34.40
2023-03-22T04:13:54.234Z,31.40
2023-03-22T04:16:25.158Z,33.00
2023-03-22T04:18:54.080Z,32.20
2023-03-22T04:21:22.951Z,31.70
2023-03-22T04:23:58.722Z,33.60
2023-03-22T04:26:27.753Z,33.00
2023-03-22T04:29:32.401Z,33.00
2023-03-22T04:32:11.490Z,31.80
2023-03-22T04:34:43.249Z,33.80
2023-03-22T04:37:15.215Z,30.30
2023-03-22T04:39:53.019Z,33.10
2023-03-22T04:42:48.747Z,32.90
2023-03-22T04:45:24.088Z,32.10
2023-03-22T04:47:56.479Z,32.60
2023-03-22T04:50:25.550Z,33.50
2023-03-22T04:52:58.661Z,33.60
2023-03-22T04:55:27.860Z,31.50
2023-03-22T04:57:56.037Z,31.50
2023-03-22T05:00:25.126Z,31.50
2023-03-22T05:02:54.473Z,31.00
2023-03-22T05:05:29.383Z,32.50
2023-03-22T05:07:57.652Z,30.10
2023-03-22T05:10:26.840Z,31.80
2023-03-22T05:12:55.538Z,32.00
2023-03-22T05:15:39.166Z,31.90
2023-03-22T05:18:08.691Z,31.60
2023-03-22T05:20:37.772Z,31.20
2023-03-22T05:23:32.577Z,32.10
2023-03-22T05:26:02.195Z,30.50
2023-03-22T05:28:32.116Z,29.40
2023-03-22T05:31:34.748Z,30.80
2023-03-22T05:34:04.212Z,31.80
2023-03-22T05:36:32.692Z,30.60
2023-03-22T05:39:36.843Z,30.20
2023-03-22T05:42:05.599Z,30.40
2023-03-22T05:44:38.795Z,29.50
2023-03-22T05:47:09.846Z,30.70
2023-03-22T05:49:49.908Z,29.10
2023-03-22T05:52:18.868Z,26.50
2023-03-22T05:54:52.922Z,28.50
2023-03-22T05:57:23.660Z,30.40
2023-03-22T05:59:54.390Z,28.30
2023-03-22T06:02:27.267Z,28.20
2023-03-22T06:04:55.759Z,29.10
2023-03-22T06:07:25.679Z,26.50
2023-03-22T06:09:57.334Z,27.10
2023-03-22T06:12:27.728Z,28.80
2023-03-22T06:15:01.885Z,29.30
2023-03-22T06:18:06.419Z,30.90
2023-03-22T06:20:40.913Z,29.70
2023-03-22T06:23:15.460Z,29.90
2023-03-22T06:25:45.493Z,30.10
2023-03-22T06:28:14.386Z,32.90
2023-03-22T06:30:49.777Z,30.40
2023-03-22T06:33:35.950Z,31.00
2023-03-22T06:36:11.264Z,33.90
2023-03-22T06:38:57.570Z,35.00
2023-03-22T06:41:26.148Z,34.50
2023-03-22T06:43:54.424Z,32.70
2023-03-22T06:46:57.549Z,33.10
2023-03-22T06:49:44.742Z,33.00
2023-03-22T06:52:17.629Z,32.60
2023-03-22T06:54:46.332Z,33.80
2023-03-22T06:57:14.709Z,32.70
2023-03-22T06:59:42.999Z,31.20
2023-03-22T07:02:14.460Z,31.30
2023-03-22T07:04:46.945Z,32.30
2023-03-22T07:07:16.245Z,33.00
2023-03-22T07:09:44.608Z,28.90
2023-03-22T07:12:13.900Z,33.30
2023-03-22T07:14:42.301Z,33.80
2023-03-22T07:17:22.285Z,32.30
2023-03-22T07:19:50.726Z,36.30
2023-03-22T07:22:22.410Z,37.10
2023-03-22T07:24:57.600Z,32.60
2023-03-22T07:27:27.139Z,29.80
2023-03-22T07:29:56.089Z,32.20
2023-03-22T07:32:24.427Z,33.10
2023-03-22T07:35:03.283Z,35.40
2023-03-22T07:37:31.631Z,30.00
2023-03-22T07:40:00.009Z,30.30
2023-03-22T07:42:32.000Z,31.70
2023-03-22T07:45:41.230Z,31.00
2023-03-22T07:48:42.062Z,28.50
2023-03-22T07:51:30.217Z,29.70
2023-03-22T07:53:59.407Z,27.00
2023-03-22T07:56:28.014Z,29.10
2023-03-22T07:58:56.745Z,22.40
2023-03-22T08:01:25.892Z,25.70
2023-03-22T08:04:14.445Z,19.90
2023-03-22T08:06:50.092Z,23.50
2023-03-22T08:09:20.148Z,22.70
2023-03-22T08:11:51.701Z,23.10
2023-03-22T08:14:27.512Z,24.30
2023-03-22T08:17:02.981Z,25.80
2023-03-22T08:19:33.515Z,24.20
2023-03-22T08:22:04.448Z,22.50
2023-03-22T08:24:52.919Z,22.40
2023-03-22T08:27:31.657Z,24.80
2023-03-22T08:30:01.030Z,22.20
2023-03-22T08:32:29.638Z,23.50
2023-03-22T08:34:59.241Z,21.00
2023-03-22T08:37:28.862Z,22.90
2023-03-22T08:39:57.704Z,17.40
2023-03-22T08:42:31.651Z,20.40
2023-03-22T08:45:00.052Z,19.60
2023-03-22T08:47:29.872Z,16.80
2023-03-22T08:50:01.109Z,18.60
2023-03-22T08:52:37.378Z,19.40
2023-03-22T08:55:17.526Z,19.40
2023-03-22T08:58:11.511Z,17.60
2023-03-22T09:00:58.280Z,17.40
2023-03-22T09:03:32.536Z,15.90
2023-03-22T09:06:01.223Z,15.10
2023-03-22T09:08:31.967Z,15.20
2023-03-22T09:11:09.886Z,16.10
2023-03-22T09:13:38.461Z,17.20
2023-03-22T09:16:09.105Z,16.10
2023-03-22T09:18:39.224Z,16.30
2023-03-22T09:21:13.228Z,15.70
2023-03-22T09:23:53.506Z,16.40
2023-03-22T09:26:27.559Z,13.20
2023-03-22T09:28:56.731Z,15.50
2023-03-22T09:31:25.835Z,15.50
2023-03-22T09:34:04.351Z,14.00
2023-03-22T09:36:33.315Z,13.30
2023-03-22T09:39:05.802Z,14.00
2023-03-22T09:41:45.750Z,14.20
2023-03-22T09:44:24.716Z,12.90
2023-03-22T09:46:57.148Z,13.00
2023-03-22T09:49:47.206Z,14.20
2023-03-22T09:52:22.240Z,13.80
2023-03-22T09:54:52.872Z,17.20
2023-03-22T09:57:27.852Z,15.40
2023-03-22T10:00:15.856Z,15.60
2023-03-22T10:02:59.757Z,15.50
2023-03-22T10:05:34.999Z,17.00
2023-03-22T10:08:33.587Z,15.70
2023-03-22T10:11:02.873Z,14.60
2023-03-22T10:13:45.389Z,15.20
2023-03-22T10:16:26.138Z,14.70
2023-03-22T10:19:02.332Z,15.70
2023-03-22T10:21:31.754Z,16.30
2023-03-22T10:24:24.393Z,14.60
2023-03-22T10:26:54.001Z,15.90
2023-03-22T10:29:32.262Z,14.60
2023-03-22T10:32:20.172Z,15.80
2023-03-22T10:34:49.564Z,18.00
2023-03-22T10:37:23.467Z,16.50
2023-03-22T10:39:55.861Z,18.50
2023-03-22T10:42:28.327Z,15.70
2023-03-22T10:45:05.716Z,15.00
2023-03-22T10:47:42.522Z,17.20
2023-03-22T10:50:21.324Z,16.30
2023-03-22T10:53:01.710Z,15.40
2023-03-22T10:55:30.792Z,17.00
2023-03-22T10:58:20.052Z,18.10
2023-03-22T11:00:52.064Z,15.00
2023-03-22T11:03:44.995Z,15.40
2023-03-22T11:06:41.639Z,16.80
2023-03-22T11:09:20.764Z,17.80
2023-03-22T11:12:11.260Z,15.80
2023-03-22T11:14:44.573Z,17.00
2023-03-22T11:17:17.226Z,16.10
2023-03-22T11:20:02.061Z,15.90
2023-03-22T11:22:37.869Z,15.40
2023-03-22T11:25:31.742Z,15.20
2023-03-22T11:28:23.281Z,12.40
2023-03-22T11:31:05.685Z,15.30
2023-03-22T11:33:34.992Z,11.40
2023-03-22T11:36:15.667Z,11.40
2023-03-22T11:38:47.318Z,12.00
2023-03-22T11:41:24.915Z,13.80
2023-03-22T11:44:16.038Z,11.70
2023-03-22T11:46:58.104Z,12.70
2023-03-22T11:49:48.852Z,11.30
2023-03-22T11:52:22.056Z,11.50
2023-03-22T11:54:51.450Z,11.10
2023-03-22T11:57:29.156Z,9.80
2023-03-22T12:00:12.082Z,8.30
2023-03-22T12:02:50.440Z,7.90
2023-03-22T12:05:27.497Z,8.00
2023-03-22T12:07:59.428Z,8.80
2023-03-22T12:10:38.677Z,8.40
2023-03-22T12:13:07.032Z,7.90
2023-03-22T12:15:43.327Z,8.20
2023-03-22T12:18:43.668Z,6.90
2023-03-22T12:21:12.456Z,7.90
2023-03-22T12:23:40.819Z,7.70
2023-03-22T12:26:24.066Z,8.60
2023-03-22T12:29:14.263Z,7.70
2023-03-22T12:31:57.493Z,8.20
2023-03-22T12:34:35.089Z,9.30
2023-03-22T12:37:07.248Z,8.10
2023-03-22T12:39:41.781Z,8.70
2023-03-22T12:42:23.274Z,8.90
2023-03-22T12:45:05.098Z,8.40
2023-03-22T12:47:43.371Z,7.60
2023-03-22T12:50:18.125Z,8.40
2023-03-22T12:52:49.239Z,11.50
2023-03-22T12:55:29.548Z,8.20
2023-03-22T12:57:58.938Z,7.90
2023-03-22T13:00:48.478Z,9.00
2023-03-22T13:03:17.665Z,7.00
2023-03-22T13:05:50.090Z,8.50
2023-03-22T13:08:23.201Z,10.00
2023-03-22T13:11:00.167Z,7.80
2023-03-22T13:13:28.556Z,7.30
2023-03-22T13:16:09.396Z,7.90
2023-03-22T13:18:58.634Z,9.20
2023-03-22T13:21:30.172Z,7.90
2023-03-22T13:24:10.641Z,8.60
2023-03-22T13:26:49.328Z,7.50
2023-03-22T13:29:32.984Z,7.50
2023-03-22T13:32:03.544Z,8.00
2023-03-22T13:34:44.686Z,8.50
2023-03-22T13:37:37.048Z,9.10
2023-03-22T13:40:27.460Z,8.50
2023-03-22T13:43:22.672Z,7.80
2023-03-22T13:46:20.919Z,7.80
2023-03-22T13:48:52.743Z,8.20
2023-03-22T13:51:25.647Z,8.10
2023-03-22T13:54:14.346Z,7.30
2023-03-22T13:56:54.401Z,9.10
2023-03-22T13:59:32.450Z,7.20
2023-03-22T14:02:11.566Z,8.20
2023-03-22T14:04:43.429Z,9.80
2023-03-22T14:07:31.208Z,7.00
2023-03-22T14:10:03.814Z,8.50
2023-03-22T14:12:48.919Z,8.70
2023-03-22T14:15:31.576Z,7.90
2023-03-22T14:18:18.073Z,7.10
2023-03-22T14:20:53.325Z,9.40
